createdAt,value
2018-07-17T00:01:05.858Z,6.67
2018-07-17T00:03:34.706Z,5.90
2018-07-17T00:06:03.750Z,6.23
2018-07-17T00:08:32.744Z,7.63
2018-07-17T00:11:01.662Z,6.57
2018-07-17T00:13:30.464Z,6.73
2018-07-17T00:15:59.396Z,6.73
2018-07-17T00:18:28.251Z,6.83
2018-07-17T00:20:57.141Z,6.63
2018-07-17T00:23:26.191Z,6.70
2018-07-17T00:25:55.190Z,6.73
2018-07-17T00:28:24.093Z,6.73
2018-07-17T00:30:53.088Z,7.00
2018-07-17T00:33:22.138Z,7.07
2018-07-17T00:35:51.215Z,6.40
2018-07-17T00:38:20.181Z,6.53
2018-07-17T00:40:49.241Z,7.10
2018-07-17T00:43:18.167Z,6.70
2018-07-17T00:45:47.078Z,7.37
2018-07-17T00:48:16.109Z,7.40
2018-07-17T00:50:45.176Z,7.27
2018-07-17T00:53:14.398Z,6.00
2018-07-17T00:55:43.547Z,6.60
2018-07-17T00:58:12.587Z,7.70
2018-07-17T01:00:44.571Z,7.73
2018-07-17T01:03:18.930Z,6.80
2018-07-17T01:05:53.274Z,7.13
2018-07-17T01:08:27.393Z,8.67
2018-07-17T01:11:01.651Z,7.97
2018-07-17T01:13:39.205Z,7.50
2018-07-17T01:16:08.289Z,8.37
2018-07-17T01:18:37.417Z,9.27
2018-07-17T01:21:06.586Z,8.50
2018-07-17T01:23:35.706Z,8.73
2018-07-17T01:26:04.778Z,8.97
2018-07-17T01:28:33.652Z,8.70
2018-07-17T01:31:02.549Z,8.07
2018-07-17T01:33:31.531Z,8.93
2018-07-17T01:36:00.978Z,9.70
2018-07-17T01:38:29.982Z,8.80
2018-07-17T01:40:59.130Z,9.30
2018-07-17T01:43:28.198Z,9.23
2018-07-17T01:45:57.121Z,8.90
2018-07-17T01:48:26.028Z,8.47
2018-07-17T01:50:55.209Z,9.20
2018-07-17T01:53:24.123Z,9.10
2018-07-17T01:55:53.189Z,9.57
2018-07-17T01:58:22.262Z,9.40
2018-07-17T02:00:51.591Z,8.60
2018-07-17T02:03:20.953Z,10.63
2018-07-17T02:05:50.354Z,9.93
2018-07-17T02:08:19.577Z,9.30
2018-07-17T02:10:48.836Z,8.97
2018-07-17T02:13:18.015Z,8.30
2018-07-17T02:15:47.056Z,8.80
2018-07-17T02:18:16.058Z,8.90
2018-07-17T02:20:45.762Z,8.87
2018-07-17T02:23:15.170Z,8.70
2018-07-17T02:25:44.525Z,9.30
2018-07-17T02:28:13.621Z,9.00
2018-07-17T02:30:42.794Z,8.57
2018-07-17T02:33:12.046Z,9.80
2018-07-17T02:35:41.133Z,9.83
2018-07-17T02:38:10.149Z,8.00
2018-07-17T02:40:39.101Z,9.03
2018-07-17T02:43:08.061Z,9.47
2018-07-17T02:45:37.230Z,8.67
2018-07-17T02:48:06.115Z,9.70
2018-07-17T02:50:35.182Z,8.83
2018-07-17T02:53:04.142Z,10.77
2018-07-17T02:55:33.217Z,9.50
2018-07-17T02:58:02.193Z,9.23
2018-07-17T03:00:31.217Z,9.27
2018-07-17T03:03:00.085Z,9.47
2018-07-17T03:05:28.998Z,8.83
2018-07-17T03:07:58.070Z,8.87
2018-07-17T03:10:27.041Z,8.43
2018-07-17T03:12:56.007Z,9.53
2018-07-17T03:15:25.697Z,8.93
2018-07-17T03:17:54.673Z,7.67
2018-07-17T03:20:23.590Z,8.80
2018-07-17T03:22:52.564Z,7.90
2018-07-17T03:25:21.491Z,8.60
2018-07-17T03:27:50.753Z,7.60
2018-07-17T03:30:19.830Z,8.07
2018-07-17T03:32:48.919Z,8.90
2018-07-17T03:35:18.043Z,8.37
2018-07-17T03:37:47.018Z,8.40
2018-07-17T03:40:16.084Z,8.70
2018-07-17T03:42:52.457Z,9.90
2018-07-17T03:45:21.590Z,9.67
2018-07-17T03:47:50.502Z,12.00
2018-07-17T03:50:19.621Z,10.77
2018-07-17T03:52:48.715Z,9.07
2018-07-17T03:55:18.188Z,10.27
2018-07-17T03:57:47.532Z,10.90
2018-07-17T04:00:16.883Z,9.70
2018-07-17T04:02:46.049Z,9.07
2018-07-17T04:05:15.222Z,8.73
2018-07-17T04:07:44.430Z,10.03
2018-07-17T04:10:13.859Z,9.37
2018-07-17T04:12:43.257Z,9.97
2018-07-17T04:15:12.417Z,9.47
2018-07-17T04:17:41.489Z,10.57
2018-07-17T04:20:10.760Z,9.60
2018-07-17T04:22:40.105Z,9.77
2018-07-17T04:25:09.382Z,10.17
2018-07-17T04:27:38.553Z,9.30
2018-07-17T04:30:07.644Z,10.30
2018-07-17T04:32:36.648Z,10.43
2018-07-17T04:35:05.704Z,9.80
2018-07-17T04:37:34.855Z,9.87
2018-07-17T04:40:04.180Z,8.90
2018-07-17T04:42:33.203Z,8.80
2018-07-17T04:45:02.752Z,10.40
2018-07-17T04:47:32.110Z,9.60
2018-07-17T04:50:01.184Z,10.00
2018-07-17T04:52:30.280Z,10.93
2018-07-17T04:54:59.245Z,10.50
2018-07-17T04:57:28.168Z,10.47
2018-07-17T04:59:57.305Z,9.40
2018-07-17T05:02:26.314Z,10.27
2018-07-17T05:04:55.753Z,11.43
2018-07-17T05:07:24.859Z,9.93
2018-07-17T05:09:54.036Z,10.13
2018-07-17T05:12:23.070Z,10.13
2018-07-17T05:14:52.249Z,10.83
2018-07-17T05:17:21.734Z,10.43
2018-07-17T05:19:50.803Z,10.50
2018-07-17T05:22:19.949Z,10.90
2018-07-17T05:24:49.170Z,11.53
2018-07-17T05:27:18.394Z,10.30
2018-07-17T05:29:47.423Z,9.13
2018-07-17T05:32:16.542Z,10.87
2018-07-17T05:34:45.878Z,10.10
2018-07-17T05:37:15.189Z,11.47
2018-07-17T05:39:44.556Z,11.10
2018-07-17T05:42:13.765Z,10.87
2018-07-17T05:44:42.842Z,11.10
2018-07-17T05:47:12.021Z,10.30
2018-07-17T05:49:41.216Z,10.33
2018-07-17T05:52:10.509Z,11.47
2018-07-17T05:54:39.591Z,10.80
2018-07-17T05:57:08.950Z,10.70
2018-07-17T05:59:37.900Z,9.27
2018-07-17T06:02:08.197Z,10.87
2018-07-17T06:04:37.484Z,10.70
2018-07-17T06:07:06.641Z,9.77
2018-07-17T06:09:35.688Z,10.33
2018-07-17T06:12:04.862Z,11.87
2018-07-17T06:14:34.175Z,9.93
2018-07-17T06:17:03.352Z,9.27
2018-07-17T06:19:32.569Z,10.27
2018-07-17T06:22:01.759Z,11.40
2018-07-17T06:24:31.021Z,9.87
2018-07-17T06:27:00.129Z,10.40
2018-07-17T06:29:29.261Z,8.37
2018-07-17T06:31:58.592Z,9.00
2018-07-17T06:34:27.653Z,9.70
2018-07-17T06:36:56.874Z,10.33
2018-07-17T06:39:26.072Z,13.17
2018-07-17T06:41:54.922Z,11.43
2018-07-17T06:44:23.949Z,10.13
2018-07-17T06:46:53.370Z,10.43
2018-07-17T06:49:22.617Z,10.00
2018-07-17T06:51:51.609Z,9.03
2018-07-17T06:54:20.885Z,8.50
2018-07-17T06:56:50.040Z,9.80
2018-07-17T06:59:19.058Z,10.13
2018-07-17T07:01:48.165Z,9.57
2018-07-17T07:04:17.085Z,8.90
2018-07-17T07:06:46.111Z,8.67
2018-07-17T07:09:15.146Z,8.20
2018-07-17T07:11:44.513Z,9.80
2018-07-17T07:14:13.729Z,9.10
2018-07-17T07:16:42.761Z,9.37
2018-07-17T07:19:11.730Z,10.77
2018-07-17T07:21:41.141Z,10.03
2018-07-17T07:24:10.596Z,9.50
2018-07-17T07:26:39.657Z,9.87
2018-07-17T07:29:08.662Z,10.33
2018-07-17T07:31:37.814Z,10.30
2018-07-17T07:34:06.766Z,10.70
2018-07-17T07:36:35.704Z,10.07
2018-07-17T07:39:06.387Z,11.10
2018-07-17T07:41:35.567Z,9.30
2018-07-17T07:44:04.787Z,9.10
2018-07-17T07:46:34.387Z,10.00
2018-07-17T07:49:03.719Z,10.40
2018-07-17T07:51:32.914Z,9.90
2018-07-17T07:54:02.102Z,8.77
2018-07-17T07:56:31.206Z,8.83
2018-07-17T07:59:00.171Z,9.27
2018-07-17T08:01:29.155Z,9.50
2018-07-17T08:03:58.333Z,8.37
2018-07-17T08:06:27.646Z,8.10
2018-07-17T08:08:56.918Z,8.47
2018-07-17T08:11:26.090Z,7.43
2018-07-17T08:13:55.174Z,7.30
2018-07-17T08:16:24.142Z,7.07
2018-07-17T08:18:53.154Z,7.50
2018-07-17T08:21:21.944Z,7.00
2018-07-17T08:23:50.796Z,6.63
2018-07-17T08:26:19.717Z,6.07
2018-07-17T08:28:48.634Z,4.80
2018-07-17T08:31:17.561Z,6.47
2018-07-17T08:33:46.526Z,6.00
2018-07-17T08:36:15.559Z,4.93
2018-07-17T08:38:44.442Z,4.07
2018-07-17T08:41:13.507Z,3.53
2018-07-17T08:43:43.053Z,3.50
2018-07-17T08:46:12.034Z,3.23
2018-07-17T08:48:41.201Z,2.80
2018-07-17T08:51:10.018Z,3.70
2018-07-17T08:53:39.012Z,3.27
2018-07-17T08:56:07.962Z,2.83
2018-07-17T08:58:37.051Z,3.70
2018-07-17T09:01:05.830Z,3.10
2018-07-17T09:03:34.589Z,3.43
2018-07-17T09:06:03.559Z,3.67
2018-07-17T09:08:32.490Z,3.17
2018-07-17T09:11:01.448Z,2.50
2018-07-17T09:13:30.253Z,4.30
2018-07-17T09:15:59.246Z,3.77
2018-07-17T09:18:28.489Z,3.90
2018-07-17T09:20:57.337Z,3.97
2018-07-17T09:23:26.554Z,3.67
2018-07-17T09:25:56.178Z,4.07
2018-07-17T09:28:25.000Z,3.30
2018-07-17T09:31:00.532Z,3.27
2018-07-17T09:33:38.599Z,3.70
2018-07-17T09:36:08.652Z,3.80
2018-07-17T09:38:39.354Z,4.10
2018-07-17T09:41:08.550Z,3.40
2018-07-17T09:43:37.271Z,3.60
2018-07-17T09:46:06.229Z,2.83
2018-07-17T09:48:35.044Z,3.10
2018-07-17T09:51:03.809Z,3.63
2018-07-17T09:53:32.711Z,3.83
2018-07-17T09:56:02.380Z,3.20
2018-07-17T09:58:31.738Z,3.40
2018-07-17T10:01:05.758Z,3.30
2018-07-17T10:03:34.753Z,4.40
2018-07-17T10:06:03.780Z,4.00
2018-07-17T10:08:32.461Z,3.37
2018-07-17T10:11:01.206Z,3.80
2018-07-17T10:13:30.455Z,4.43
2018-07-17T10:15:59.345Z,3.20
2018-07-17T10:18:29.782Z,3.90
2018-07-17T10:20:58.622Z,2.90
2018-07-17T10:23:27.997Z,3.10
2018-07-17T10:25:57.091Z,3.70
2018-07-17T10:28:25.889Z,3.73
2018-07-17T10:30:54.822Z,3.30
2018-07-17T10:33:23.706Z,3.10
2018-07-17T10:35:52.518Z,3.70
2018-07-17T10:38:21.534Z,2.77
2018-07-17T10:40:51.502Z,3.00
2018-07-17T10:43:20.551Z,3.43
2018-07-17T10:45:49.477Z,2.80
2018-07-17T10:48:18.816Z,3.20
2018-07-17T10:50:47.733Z,3.13
2018-07-17T10:53:16.761Z,2.70
2018-07-17T10:55:45.578Z,3.23
2018-07-17T10:58:14.482Z,3.30
2018-07-17T11:00:43.292Z,3.10
2018-07-17T11:03:12.166Z,3.47
2018-07-17T11:05:41.071Z,3.43
2018-07-17T11:08:10.141Z,2.83
2018-07-17T11:10:38.895Z,3.00
2018-07-17T11:13:08.090Z,3.10
2018-07-17T11:15:37.456Z,2.80
2018-07-17T11:18:06.492Z,3.20
2018-07-17T11:20:35.301Z,3.10
2018-07-17T11:23:04.200Z,2.87
2018-07-17T11:25:33.300Z,2.33
2018-07-17T11:28:02.419Z,2.37
2018-07-17T11:30:31.471Z,2.53
2018-07-17T11:33:00.346Z,2.77
2018-07-17T11:35:29.339Z,3.20
2018-07-17T11:37:58.140Z,3.20
2018-07-17T11:40:27.034Z,4.90
2018-07-17T11:42:55.937Z,2.63
2018-07-17T11:45:24.672Z,2.87
2018-07-17T11:47:53.589Z,2.70
2018-07-17T11:50:22.360Z,2.90
2018-07-17T11:52:51.181Z,3.40
2018-07-17T11:55:20.099Z,2.90
2018-07-17T11:57:49.041Z,3.37
2018-07-17T12:00:19.815Z,2.70
2018-07-17T12:02:48.590Z,2.30
2018-07-17T12:05:17.736Z,3.00
2018-07-17T12:07:46.482Z,2.37
2018-07-17T12:10:15.487Z,2.60
2018-07-17T12:12:44.374Z,2.50
2018-07-17T12:15:13.122Z,2.43
2018-07-17T12:17:42.275Z,2.63
2018-07-17T12:20:11.395Z,2.43
2018-07-17T12:22:40.634Z,2.33
2018-07-17T12:25:09.629Z,2.60
2018-07-17T12:27:38.378Z,1.93
2018-07-17T12:30:07.723Z,2.00
2018-07-17T12:32:38.524Z,1.90
2018-07-17T12:35:09.193Z,1.90
2018-07-17T12:37:38.287Z,2.37
2018-07-17T12:40:08.067Z,2.00
2018-07-17T12:42:37.322Z,2.27
2018-07-17T12:45:06.466Z,2.13
2018-07-17T12:47:35.382Z,2.17
2018-07-17T12:50:04.929Z,2.20
2018-07-17T12:52:33.789Z,2.17
2018-07-17T12:55:03.110Z,1.90
2018-07-17T12:57:32.403Z,1.90
2018-07-17T13:00:02.051Z,1.73
2018-07-17T13:02:31.113Z,1.87
2018-07-17T13:05:00.190Z,1.80
2018-07-17T13:07:36.146Z,2.10
2018-07-17T13:10:06.564Z,1.60
2018-07-17T13:12:35.434Z,1.90
2018-07-17T13:15:04.712Z,1.83
2018-07-17T13:17:34.508Z,1.80
2018-07-17T13:20:03.990Z,1.97
2018-07-17T13:22:33.098Z,1.97
2018-07-17T13:25:02.105Z,2.13
2018-07-17T13:27:31.175Z,1.63
2018-07-17T13:29:59.971Z,1.67
2018-07-17T13:32:28.926Z,2.10
2018-07-17T13:34:57.874Z,1.67
2018-07-17T13:37:26.735Z,2.10
2018-07-17T13:39:55.501Z,1.80
2018-07-17T13:42:24.395Z,2.07
2018-07-17T13:44:53.439Z,2.33
2018-07-17T13:47:22.159Z,1.93
2018-07-17T13:49:51.189Z,2.07
2018-07-17T13:52:20.310Z,1.77
2018-07-17T13:54:49.504Z,1.90
2018-07-17T13:57:18.374Z,2.10
2018-07-17T13:59:47.338Z,2.27
2018-07-17T14:02:16.205Z,2.00
2018-07-17T14:04:45.055Z,3.47
2018-07-17T14:07:13.946Z,2.30
2018-07-17T14:09:42.901Z,2.07
2018-07-17T14:12:11.718Z,1.70
2018-07-17T14:14:40.798Z,2.23
2018-07-17T14:17:09.642Z,1.80
2018-07-17T14:19:38.747Z,1.70
2018-07-17T14:22:07.689Z,2.20
2018-07-17T14:24:36.503Z,2.10
2018-07-17T14:27:05.578Z,2.50
2018-07-17T14:29:34.680Z,2.00
2018-07-17T14:32:03.794Z,1.90
2018-07-17T14:34:32.802Z,2.47
2018-07-17T14:37:01.788Z,2.90
2018-07-17T14:39:30.832Z,5.63
2018-07-17T14:41:59.744Z,2.00
2018-07-17T14:44:28.747Z,1.70
2018-07-17T14:46:57.567Z,2.03
2018-07-17T14:49:26.445Z,2.07
2018-07-17T14:51:55.354Z,2.63
2018-07-17T14:54:24.215Z,2.17
2018-07-17T14:56:53.093Z,2.00
2018-07-17T14:59:22.060Z,1.83
2018-07-17T15:01:51.085Z,1.90
2018-07-17T15:04:19.853Z,1.90
2018-07-17T15:06:48.923Z,2.00
2018-07-17T15:09:17.666Z,1.87
2018-07-17T15:11:46.484Z,2.30
2018-07-17T15:14:15.438Z,2.43
2018-07-17T15:16:44.270Z,2.70
2018-07-17T15:19:13.193Z,2.33
2018-07-17T15:21:41.981Z,2.70
2018-07-17T15:24:11.195Z,2.10
2018-07-17T15:26:40.417Z,2.03
2018-07-17T15:29:09.102Z,1.80
2018-07-17T15:31:38.095Z,1.87
2018-07-17T15:34:07.185Z,2.27
2018-07-17T15:36:36.260Z,2.27
2018-07-17T15:39:08.190Z,2.57
2018-07-17T15:41:36.955Z,2.53
2018-07-17T15:44:05.941Z,2.50
2018-07-17T15:46:35.910Z,3.80
2018-07-17T15:49:04.722Z,2.60
2018-07-17T15:51:33.439Z,3.17
2018-07-17T15:54:02.728Z,2.30
2018-07-17T15:56:31.527Z,2.50
2018-07-17T15:59:00.335Z,2.33
2018-07-17T16:01:29.315Z,2.50
2018-07-17T16:03:58.197Z,2.30
2018-07-17T16:06:27.024Z,2.20
2018-07-17T16:08:55.870Z,2.53
2018-07-17T16:11:24.811Z,2.90
2018-07-17T16:13:53.929Z,2.43
2018-07-17T16:16:22.672Z,1.93
2018-07-17T16:18:51.644Z,1.83
2018-07-17T16:21:20.564Z,2.37
2018-07-17T16:23:49.509Z,1.60
2018-07-17T16:26:18.603Z,2.00
2018-07-17T16:28:47.666Z,1.80
2018-07-17T16:31:16.761Z,2.20
2018-07-17T16:33:45.589Z,2.20
2018-07-17T16:36:14.634Z,2.60
2018-07-17T16:38:43.710Z,1.73
2018-07-17T16:41:12.874Z,2.37
2018-07-17T16:43:42.007Z,2.20
2018-07-17T16:46:10.797Z,2.47
2018-07-17T16:48:39.985Z,2.50
2018-07-17T16:51:08.895Z,2.90
2018-07-17T16:53:37.808Z,2.53
2018-07-17T16:56:06.981Z,2.70
2018-07-17T16:58:35.766Z,2.50
2018-07-17T17:01:04.797Z,2.63
2018-07-17T17:03:33.771Z,2.60
2018-07-17T17:06:03.003Z,2.90
2018-07-17T17:08:31.936Z,3.00
2018-07-17T17:11:01.004Z,3.30
2018-07-17T17:13:29.864Z,2.80
2018-07-17T17:15:58.838Z,2.60
2018-07-17T17:18:28.111Z,2.53
2018-07-17T17:20:56.971Z,2.70
2018-07-17T17:23:25.765Z,2.90
2018-07-17T17:25:54.676Z,2.73
2018-07-17T17:28:23.547Z,2.50
2018-07-17T17:30:52.366Z,3.10
2018-07-17T17:33:21.068Z,2.80
2018-07-17T17:35:49.976Z,2.90
2018-07-17T17:38:18.730Z,2.53
2018-07-17T17:40:47.613Z,3.17
2018-07-17T17:43:16.711Z,2.63
2018-07-17T17:45:45.484Z,2.90
2018-07-17T17:48:14.472Z,3.27
2018-07-17T17:50:43.532Z,3.13
2018-07-17T17:53:12.233Z,2.77
2018-07-17T17:55:41.470Z,3.23
2018-07-17T17:58:10.561Z,3.80
2018-07-17T18:00:39.552Z,3.53
2018-07-17T18:03:08.394Z,3.27
2018-07-17T18:05:37.329Z,3.30
2018-07-17T18:08:06.232Z,3.23
2018-07-17T18:10:34.995Z,3.40
2018-07-17T18:13:03.956Z,3.27
2018-07-17T18:15:32.862Z,3.33
2018-07-17T18:18:02.019Z,3.47
2018-07-17T18:20:31.316Z,3.27
2018-07-17T18:23:00.185Z,3.17
2018-07-17T18:25:29.056Z,2.90
2018-07-17T18:27:57.881Z,3.80
2018-07-17T18:30:26.678Z,3.80
2018-07-17T18:32:55.671Z,3.60
2018-07-17T18:35:24.449Z,2.93
2018-07-17T18:37:53.297Z,3.37
2018-07-17T18:40:22.090Z,3.00
2018-07-17T18:42:50.782Z,3.07
2018-07-17T18:45:19.940Z,4.33
2018-07-17T18:47:48.966Z,3.63
2018-07-17T18:50:17.659Z,3.13
2018-07-17T18:52:46.517Z,3.30
2018-07-17T18:55:15.264Z,3.97
2018-07-17T18:57:44.060Z,4.50
2018-07-17T19:00:13.132Z,3.43
2018-07-17T19:02:42.056Z,3.77
2018-07-17T19:05:10.974Z,4.33
2018-07-17T19:07:39.767Z,3.20
2018-07-17T19:10:08.757Z,4.00
2018-07-17T19:12:37.514Z,3.90
2018-07-17T19:15:06.599Z,3.13
2018-07-17T19:17:35.571Z,3.80
2018-07-17T19:20:04.896Z,3.60
2018-07-17T19:22:34.312Z,3.87
2018-07-17T19:25:03.409Z,3.83
2018-07-17T19:27:32.239Z,4.33
2018-07-17T19:30:01.191Z,3.67
2018-07-17T19:32:30.079Z,3.17
2018-07-17T19:34:59.079Z,3.60
2018-07-17T19:37:27.973Z,3.90
2018-07-17T19:39:56.848Z,3.70
2018-07-17T19:42:25.571Z,4.03
2018-07-17T19:44:54.353Z,10.43
2018-07-17T19:47:23.268Z,3.33
2018-07-17T19:49:52.213Z,3.30
2018-07-17T19:52:21.090Z,3.20
2018-07-17T19:54:50.375Z,3.83
2018-07-17T19:57:19.267Z,3.40
2018-07-17T19:59:48.558Z,3.60
2018-07-17T20:02:17.610Z,3.10
2018-07-17T20:04:46.781Z,3.90
2018-07-17T20:07:15.887Z,3.10
2018-07-17T20:09:44.878Z,3.60
2018-07-17T20:12:13.790Z,3.40
2018-07-17T20:14:42.531Z,2.80
2018-07-17T20:17:11.881Z,3.70
2018-07-17T20:19:40.997Z,3.47
2018-07-17T20:22:09.968Z,3.03
2018-07-17T20:24:39.001Z,3.30
2018-07-17T20:27:07.876Z,3.13
2018-07-17T20:29:36.977Z,4.10
2018-07-17T20:32:06.426Z,3.20
2018-07-17T20:34:35.273Z,3.20
2018-07-17T20:37:04.234Z,2.93
2018-07-17T20:39:34.264Z,3.60
2018-07-17T20:42:03.563Z,2.90
2018-07-17T20:44:32.342Z,2.70
2018-07-17T20:47:01.202Z,3.40
2018-07-17T20:49:30.231Z,3.43
2018-07-17T20:51:59.101Z,2.90
2018-07-17T20:54:28.365Z,2.70
2018-07-17T20:56:57.234Z,3.13
2018-07-17T20:59:26.278Z,3.50
2018-07-17T21:01:55.207Z,2.80
2018-07-17T21:04:24.014Z,3.50
2018-07-17T21:06:52.979Z,2.97
2018-07-17T21:09:21.759Z,3.20
2018-07-17T21:11:50.772Z,3.43
2018-07-17T21:14:19.741Z,3.60
2018-07-17T21:16:48.727Z,4.30
2018-07-17T21:19:17.947Z,3.40
2018-07-17T21:21:46.914Z,3.20
2018-07-17T21:24:15.725Z,4.70
2018-07-17T21:26:44.561Z,4.10
2018-07-17T21:29:13.378Z,3.73
2018-07-17T21:31:42.194Z,3.40
2018-07-17T21:34:10.966Z,4.00
2018-07-17T21:36:40.148Z,3.20
2018-07-17T21:39:10.406Z,3.50
2018-07-17T21:41:39.476Z,3.30
2018-07-17T21:44:08.544Z,3.77
2018-07-17T21:46:37.486Z,3.60
2018-07-17T21:49:06.696Z,3.73
2018-07-17T21:51:35.805Z,4.10
2018-07-17T21:54:05.002Z,4.30
2018-07-17T21:56:33.858Z,4.23
2018-07-17T21:59:02.576Z,4.10
2018-07-17T22:01:31.454Z,4.40
2018-07-17T22:04:00.496Z,4.50
2018-07-17T22:06:29.354Z,4.57
2018-07-17T22:08:58.126Z,4.67
2018-07-17T22:11:26.935Z,5.80
2018-07-17T22:13:55.793Z,4.67
2018-07-17T22:16:24.911Z,4.37
2018-07-17T22:18:54.177Z,4.30
2018-07-17T22:21:23.305Z,4.37
2018-07-17T22:23:52.341Z,4.53
2018-07-17T22:26:21.066Z,4.23
2018-07-17T22:28:50.086Z,4.80
2018-07-17T22:31:18.915Z,5.60
2018-07-17T22:33:48.186Z,5.00
2018-07-17T22:36:17.246Z,5.17
2018-07-17T22:38:46.468Z,5.23
2018-07-17T22:41:15.371Z,5.47
2018-07-17T22:43:44.071Z,5.30
2018-07-17T22:46:12.893Z,4.93
2018-07-17T22:48:41.586Z,4.90
2018-07-17T22:51:10.539Z,5.23
2018-07-17T22:53:39.488Z,6.30
2018-07-17T22:56:08.223Z,4.47
2018-07-17T22:58:36.921Z,6.10
2018-07-17T23:01:05.716Z,5.83
2018-07-17T23:03:34.482Z,6.10
2018-07-17T23:06:03.777Z,5.77
2018-07-17T23:08:32.788Z,5.97
2018-07-17T23:11:02.121Z,6.07
2018-07-17T23:13:31.110Z,5.37
2018-07-17T23:16:00.044Z,5.63
2018-07-17T23:18:28.884Z,5.63
2018-07-17T23:20:57.941Z,4.93
2018-07-17T23:23:26.929Z,4.13
2018-07-17T23:25:55.767Z,4.20
2018-07-17T23:28:24.686Z,4.70
2018-07-17T23:30:53.599Z,3.70
2018-07-17T23:33:22.419Z,4.20
2018-07-17T23:35:51.487Z,4.63
2018-07-17T23:38:20.234Z,4.50
2018-07-17T23:40:49.017Z,4.53
2018-07-17T23:43:17.787Z,4.73
2018-07-17T23:45:46.669Z,5.07
2018-07-17T23:48:15.581Z,6.00
2018-07-17T23:50:44.451Z,6.80
2018-07-17T23:53:13.302Z,5.03
2018-07-17T23:55:42.293Z,5.60
2018-07-17T23:58:11.208Z,5.00
